Time;durP1;ratioP1;P1;durP2;ratioP2;P2;SDS_P1;SDS_P2;PMS_P1;PMS_P2;Temp;Humidity;BMP_temperature;BMP_pressure;BME280_temperature;BME280_humidity;BME280_pressure;Samples;Min_cycle;Max_cycle;Signal;HPM_P1;HPM_P2
2022/04/07 00:02:07;;;;;;;14.87;7.65;;;;;;;9.35;79.18;98987.34;5570692;32;34870;-64
2022/04/07 00:05:11;;;;;;;19.33;7.20;;;;;;;9.28;79.84;98984.66;5570201;32;34281;-64
2022/04/07 00:08:13;;;;;;;15.82;7.57;;;;;;;9.27;82.00;98984.84;5570597;32;34850;-64
2022/04/07 00:11:16;;;;;;;12.15;7.28;;;;;;;9.10;82.42;98969.25;5556872;32;33686;-64
2022/04/07 00:14:19;;;;;;;11.55;7.00;;;;;;;9.13;81.45;98968.91;5570594;32;34887;-64
2022/04/07 00:17:22;;;;;;;14.15;7.43;;;;;;;8.99;81.61;98971.63;5570599;32;34881;-64
2022/04/07 00:20:26;;;;;;;13.15;6.97;;;;;;;9.08;82.53;98955.44;5570604;32;34212;-64
2022/04/07 00:23:29;;;;;;;12.02;7.15;;;;;;;9.38;80.42;98957.87;5570450;32;34191;-64
2022/04/07 00:26:33;;;;;;;16.23;7.50;;;;;;;9.24;80.64;98956.97;5570432;32;34716;-64
2022/04/07 00:29:36;;;;;;;18.55;7.55;;;;;;;9.12;82.56;98950.56;5570622;32;34643;-64
2022/04/07 00:32:43;;;;;;;13.52;7.62;;;;;;;8.95;85.27;98944.75;5570373;32;34597;-64
2022/04/07 00:35:45;;;;;;;15.13;7.90;;;;;;;8.90;84.91;98947.16;5570489;32;34631;-64
2022/04/07 00:38:48;;;;;;;12.88;7.60;;;;;;;8.87;85.45;98942.25;5556435;32;33629;-64
2022/04/07 00:41:51;;;;;;;12.18;7.37;;;;;;;9.00;84.35;98942.34;5556656;32;34663;-64
2022/04/07 00:44:53;;;;;;;14.85;7.75;;;;;;;9.10;83.63;98947.31;5556737;32;34221;-64
2022/04/07 00:47:58;;;;;;;18.85;8.02;;;;;;;9.02;83.87;98939.50;5570536;32;34871;-64
2022/04/07 00:51:01;;;;;;;13.25;8.00;;;;;;;9.03;83.51;98936.66;5570158;32;35558;-64
2022/04/07 00:54:05;;;;;;;13.23;7.45;;;;;;;9.02;82.61;98934.22;5570533;32;34244;-64
2022/04/07 00:57:09;;;;;;;15.02;7.72;;;;;;;8.95;82.86;98933.37;5570303;32;34953;-64
2022/04/07 01:00:13;;;;;;;15.13;7.50;;;;;;;8.87;83.06;98928.19;5556494;32;34953;-64
2022/04/07 01:03:16;;;;;;;14.50;8.05;;;;;;;8.90;83.06;98918.06;5569934;32;35472;-64
2022/04/07 01:06:19;;;;;;;13.05;7.87;;;;;;;8.80;83.45;98911.47;5570052;32;35576;-64
2022/04/07 01:09:22;;;;;;;15.93;8.02;;;;;;;8.72;83.67;98912.41;5570080;32;34970;-64
2022/04/07 01:12:24;;;;;;;14.15;7.68;;;;;;;8.84;83.60;98918.00;5569932;32;34314;-64
2022/04/07 01:15:27;;;;;;;12.32;7.40;;;;;;;8.89;83.65;98910.31;5570016;32;34903;-64
2022/04/07 01:18:30;;;;;;;15.77;7.43;;;;;;;8.83;84.37;98903.16;5568842;32;34918;-64
2022/04/07 01:21:35;;;;;;;13.52;7.82;;;;;;;8.79;83.58;98908.00;5570394;32;34916;-64
2022/04/07 01:24:38;;;;;;;14.27;7.43;;;;;;;8.69;84.47;98903.06;5556223;32;32726;-64
2022/04/07 01:27:41;;;;;;;13.93;7.78;;;;;;;8.57;85.19;98906.38;5569952;32;34328;-64
2022/04/07 01:30:43;;;;;;;14.43;7.47;;;;;;;8.54;84.80;98902.31;5569766;32;34365;-64
2022/04/07 01:33:47;;;;;;;12.88;7.40;;;;;;;8.60;84.60;98906.84;5569862;32;34937;-64
2022/04/07 01:36:53;;;;;;;13.95;7.40;;;;;;;8.55;85.21;98893.38;5570180;32;34245;-64
2022/04/07 01:39:55;;;;;;;13.48;6.60;;;;;;;8.54;84.58;98897.03;5569848;32;34909;-64
2022/04/07 01:43:00;;;;;;;13.88;6.55;;;;;;;8.73;81.55;98883.16;5569884;32;34439;-64
2022/04/07 01:46:03;;;;;;;10.85;6.37;;;;;;;8.68;82.02;98882.09;5569683;32;34172;-64
2022/04/07 01:49:07;;;;;;;12.10;6.60;;;;;;;8.64;82.71;98873.72;5569571;32;34822;-64
2022/04/07 01:52:12;;;;;;;14.05;7.05;;;;;;;8.65;83.13;98874.56;5569774;32;34340;-64
2022/04/07 01:55:18;;;;;;;11.43;7.55;;;;;;;8.62;83.31;98880.22;5569667;32;34216;-64
2022/04/07 01:58:22;;;;;;;14.15;7.37;;;;;;;8.68;84.39;98882.09;5569663;32;34302;-64
2022/04/07 02:01:24;;;;;;;12.02;7.45;;;;;;;8.73;84.03;98883.16;5569564;32;34222;-64
2022/04/07 02:04:27;;;;;;;13.62;7.12;;;;;;;8.65;84.26;98880.66;5569437;32;34158;-64
2022/04/07 02:07:31;;;;;;;13.02;7.87;;;;;;;8.74;83.39;98876.03;5569513;32;34617;-64
2022/04/07 02:10:34;;;;;;;14.13;7.80;;;;;;;8.70;83.51;98864.22;5569486;32;35558;-64
2022/04/07 02:13:41;;;;;;;13.70;7.40;;;;;;;8.74;83.33;98870.75;5555878;32;32992;-64
2022/04/07 02:16:43;;;;;;;10.98;6.87;;;;;;;8.62;84.44;98867.00;5569675;32;35495;-64
2022/04/07 02:19:57;;;;;;;12.82;7.12;;;;;;;8.71;83.84;98864.00;5569358;32;34868;-64
2022/04/07 02:23:00;;;;;;;13.90;7.50;;;;;;;8.61;83.98;98863.56;5569303;32;34845;-64
2022/04/07 02:26:09;;;;;;;12.88;7.32;;;;;;;8.41;84.85;98854.66;5569190;32;34532;-64
2022/04/07 02:29:11;;;;;;;11.43;7.10;;;;;;;8.35;85.84;98846.66;5568739;32;34262;-65
2022/04/07 02:32:14;;;;;;;14.90;7.12;;;;;;;8.54;84.61;98851.28;5569207;32;34227;-64
2022/04/07 02:35:17;;;;;;;12.68;7.15;;;;;;;8.47;85.11;98832.72;5569515;32;33764;-64
2022/04/07 02:38:19;;;;;;;13.77;5.60;;;;;;;8.55;84.62;98815.91;5569050;32;34231;-64
2022/04/07 02:41:22;;;;;;;12.68;6.30;;;;;;;8.77;81.99;98809.53;5555434;32;34171;-64
2022/04/07 02:44:25;;;;;;;9.52;5.68;;;;;;;8.73;82.06;98817.06;5555124;32;34578;-65
2022/04/07 02:47:33;;;;;;;10.10;5.40;;;;;;;8.69;82.63;98807.88;5568970;32;34432;-64
2022/04/07 02:50:35;;;;;;;12.60;5.53;;;;;;;8.64;81.83;98806.81;5569043;32;34823;-65
2022/04/07 02:53:38;;;;;;;10.32;6.00;;;;;;;8.64;81.53;98793.59;5569080;32;34715;-64
2022/04/07 02:56:40;;;;;;;11.45;5.70;;;;;;;8.54;82.44;98793.12;5568747;32;34311;-64
2022/04/07 02:59:43;;;;;;;10.32;5.70;;;;;;;8.60;83.04;98781.78;5568712;32;34273;-64
2022/04/07 03:02:46;;;;;;;12.23;6.70;;;;;;;8.52;82.93;98781.97;5568974;32;34287;-64
2022/04/07 03:05:49;;;;;;;12.10;6.20;;;;;;;8.39;83.62;98787.94;5568817;32;34404;-64
2022/04/07 03:08:51;;;;;;;8.95;5.68;;;;;;;8.45;84.24;98778.44;5568564;32;34273;-64
2022/04/07 03:11:54;;;;;;;8.95;5.20;;;;;;;8.43;85.23;98777.81;5568368;32;34257;-64
2022/04/07 03:14:57;;;;;;;9.48;5.78;;;;;;;8.30;86.30;98781.19;5568385;32;34150;-64
2022/04/07 03:18:00;;;;;;;12.77;6.25;;;;;;;8.24;88.20;98780.09;5568709;32;35625;-64
2022/04/07 03:21:03;;;;;;;11.32;5.97;;;;;;;8.02;90.26;98777.69;5568041;32;34695;-64
2022/04/07 03:24:06;;;;;;;8.98;5.25;;;;;;;7.81;91.75;98771.41;5568153;32;34299;-64
2022/04/07 03:27:28;;;;;;;9.70;5.28;;;;;;;7.71;92.12;98765.63;5568138;32;34134;-64
2022/04/07 03:30:31;;;;;;;10.10;5.00;;;;;;;7.73;92.62;98757.50;5567949;32;34213;-64
2022/04/07 03:33:34;;;;;;;9.05;5.60;;;;;;;7.85;92.22;98764.72;5567985;32;34825;-64
2022/04/07 03:36:37;;;;;;;11.07;5.53;;;;;;;7.82;91.19;98754.56;5568050;32;34665;-64
2022/04/07 03:39:39;;;;;;;8.10;5.47;;;;;;;7.82;90.51;98748.47;5567903;32;34161;-64
2022/04/07 03:42:43;;;;;;;7.85;5.00;;;;;;;7.87;88.91;98746.88;5570409;32;34190;-64
2022/04/07 03:45:46;;;;;;;10.02;5.72;;;;;;;7.85;88.06;98742.78;5570557;32;34116;-64
2022/04/07 03:48:49;;;;;;;8.27;5.15;;;;;;;7.95;86.46;98742.47;5544284;32;35525;-64
2022/04/07 03:51:52;;;;;;;8.82;5.22;;;;;;;8.13;84.96;98732.25;5570640;32;35280;-64
2022/04/07 03:54:55;;;;;;;7.87;5.12;;;;;;;8.12;84.98;98720.06;5570721;32;34835;-64
2022/04/07 03:57:57;;;;;;;11.07;5.57;;;;;;;8.20;84.39;98720.72;5570912;32;34785;-64
2022/04/07 04:01:00;;;;;;;15.35;5.72;;;;;;;8.26;84.10;98716.50;5571038;32;34857;-64
2022/04/07 04:04:03;;;;;;;9.05;4.55;;;;;;;8.17;84.77;98715.84;5570955;32;35456;-64
2022/04/07 04:07:06;;;;;;;10.25;4.82;;;;;;;8.17;84.70;98720.31;5570714;32;34282;-63
2022/04/07 04:10:09;;;;;;;8.05;4.32;;;;;;;8.27;84.05;98718.13;5570835;32;34295;-64
2022/04/07 04:13:12;;;;;;;9.38;4.60;;;;;;;8.35;83.21;98719.81;5570567;32;35696;-64
2022/04/07 04:16:17;;;;;;;8.23;4.47;;;;;;;8.33;82.55;98719.22;5570470;32;35483;-64
2022/04/07 04:19:20;;;;;;;8.45;4.30;;;;;;;8.57;81.03;98719.53;5570885;32;34192;-64
2022/04/07 04:22:23;;;;;;;8.27;4.55;;;;;;;8.64;81.15;98720.41;5570479;32;34124;-65
2022/04/07 04:25:26;;;;;;;10.20;4.80;;;;;;;8.56;81.28;98731.16;5556155;32;33700;-64
2022/04/07 04:28:28;;;;;;;8.98;4.78;;;;;;;8.65;80.07;98724.69;5570376;32;34238;-64
2022/04/07 04:31:31;;;;;;;6.60;4.40;;;;;;;8.67;80.22;98720.00;5570404;32;34582;-64
2022/04/07 04:34:34;;;;;;;7.75;4.57;;;;;;;8.81;79.31;98714.81;5570351;32;34211;-64
2022/04/07 04:37:38;;;;;;;6.20;4.28;;;;;;;8.79;79.45;98717.62;5570091;32;34879;-65
2022/04/07 04:40:40;;;;;;;8.65;4.30;;;;;;;8.72;80.12;98722.06;5556285;32;34308;-64
2022/04/07 04:43:43;;;;;;;6.15;3.97;;;;;;;8.81;79.60;98714.81;5570192;32;34141;-64
2022/04/07 04:46:46;;;;;;;10.70;4.55;;;;;;;8.89;78.91;98711.97;5570046;32;34950;-64
2022/04/07 04:49:48;;;;;;;7.57;4.57;;;;;;;8.87;79.29;98721.94;5570186;32;34217;-65
2022/04/07 04:52:51;;;;;;;8.60;4.70;;;;;;;8.90;79.29;98721.56;5569687;32;35454;-64
2022/04/07 04:55:53;;;;;;;10.35;4.85;;;;;;;9.14;78.23;98721.03;5556443;32;32584;-64
2022/04/07 04:58:57;;;;;;;6.75;4.50;;;;;;;9.03;78.93;98711.00;5569906;32;34379;-63
2022/04/07 05:01:59;;;;;;;8.00;4.50;;;;;;;9.20;77.20;98711.50;5570092;32;34943;-64
2022/04/07 05:05:03;;;;;;;12.18;4.57;;;;;;;9.22;77.04;98714.72;5569867;32;34823;-64
2022/04/07 05:08:06;;;;;;;7.80;4.60;;;;;;;9.31;76.46;98718.81;5556118;32;34207;-64
2022/04/07 05:11:09;;;;;;;7.50;4.45;;;;;;;9.21;77.35;98715.75;5570184;32;34186;-64
2022/04/07 05:14:11;;;;;;;7.75;4.68;;;;;;;9.17;77.70;98717.97;5569732;32;34870;-64
2022/04/07 05:17:14;;;;;;;7.57;4.70;;;;;;;9.21;77.34;98713.91;5569526;32;34156;-64
2022/04/07 05:20:17;;;;;;;9.75;4.60;;;;;;;9.33;76.76;98719.44;5569628;32;34240;-65
2022/04/07 05:23:20;;;;;;;7.68;4.40;;;;;;;9.32;76.97;98718.63;5569591;32;34653;-64
2022/04/07 05:26:22;;;;;;;7.65;4.53;;;;;;;9.44;76.53;98714.38;5555685;32;34246;-64
2022/04/07 05:29:25;;;;;;;7.47;4.40;;;;;;;9.54;75.60;98719.28;5569624;32;34789;-63
2022/04/07 05:32:28;;;;;;;6.47;4.28;;;;;;;9.58;76.31;98718.66;5569896;32;34300;-63
2022/04/07 05:35:31;;;;;;;6.65;4.10;;;;;;;9.56;76.25;98723.38;5556081;32;34599;-65
2022/04/07 05:38:34;;;;;;;8.93;4.80;;;;;;;9.77;75.58;98718.91;5569667;32;34837;-65
2022/04/07 05:41:37;;;;;;;6.12;3.97;;;;;;;9.93;74.83;98729.91;5569912;32;34689;-65
2022/04/07 05:44:39;;;;;;;6.78;3.80;;;;;;;10.01;74.61;98736.84;5569701;32;33831;-65
2022/04/07 05:47:42;;;;;;;6.50;4.45;;;;;;;10.23;73.00;98740.94;5569756;32;34878;-65
2022/04/07 05:50:45;;;;;;;6.80;3.55;;;;;;;10.19;72.15;98738.91;5568649;32;34269;-66
2022/04/07 05:53:48;;;;;;;9.63;4.65;;;;;;;10.18;72.59;98737.25;5568843;32;34319;-65
2022/04/07 05:56:50;;;;;;;7.32;4.32;;;;;;;10.35;72.18;98736.66;5568975;32;34399;-65
2022/04/07 06:00:13;;;;;;;10.05;4.20;;;;;;;10.45;71.97;98733.56;5568664;32;34477;-65
2022/04/07 06:03:16;;;;;;;7.57;4.03;;;;;;;10.52;71.27;98733.53;5567994;32;34976;-65
2022/04/07 06:06:19;;;;;;;9.68;4.70;;;;;;;10.51;71.50;98739.84;5568756;32;34858;-65
2022/04/07 06:09:22;;;;;;;7.53;4.45;;;;;;;10.51;71.31;98734.56;5569228;32;34294;-65
2022/04/07 06:12:24;;;;;;;7.43;3.85;;;;;;;10.78;69.78;98744.91;5555380;32;33663;-65
2022/04/07 06:15:28;;;;;;;5.93;4.25;;;;;;;10.90;69.13;98755.69;5569061;32;34238;-65
2022/04/07 06:18:31;;;;;;;6.15;3.90;;;;;;;10.90;69.03;98748.53;5569186;32;34209;-65
2022/04/07 06:21:34;;;;;;;10.05;4.62;;;;;;;11.09;67.77;98751.31;5568889;32;34255;-65
2022/04/07 06:24:36;;;;;;;6.32;3.85;;;;;;;11.33;66.28;98751.41;5568057;32;34581;-65
2022/04/07 06:27:47;;;;;;;7.28;4.22;;;;;;;11.36;66.72;98755.50;5568160;32;34429;-65
2022/04/07 06:30:51;;;;;;;7.28;4.25;;;;;;;11.59;66.40;98754.94;5568833;32;34375;-65
2022/04/07 06:33:54;;;;;;;8.45;4.35;;;;;;;11.65;65.15;98759.41;5568512;32;34967;-65
2022/04/07 06:37:09;;;;;;;5.87;4.10;;;;;;;11.72;64.76;98770.78;5568834;32;34753;-65
2022/04/07 06:40:12;;;;;;;9.35;4.37;;;;;;;11.73;64.57;98780.44;5568613;32;34154;-65
2022/04/07 06:43:15;;;;;;;6.37;3.87;;;;;;;11.82;66.28;98781.81;5555035;32;34264;-65
2022/04/07 06:46:18;;;;;;;6.28;4.22;;;;;;;11.75;65.64;98776.56;5554698;32;32686;-65
2022/04/07 06:49:20;;;;;;;5.60;3.67;;;;;;;11.56;65.64;98782.75;5568645;32;34162;-65
2022/04/07 06:52:23;;;;;;;7.97;4.70;;;;;;;11.73;65.17;98785.75;5568461;32;34125;-65
2022/04/07 06:55:25;;;;;;;7.95;4.45;;;;;;;11.92;64.29;98789.28;5568321;32;34293;-64
2022/04/07 06:58:28;;;;;;;7.25;4.28;;;;;;;11.84;65.34;98789.56;5568505;32;34946;-64
2022/04/07 07:01:31;;;;;;;12.77;4.60;;;;;;;11.86;65.01;98790.97;5554924;32;35461;-65
2022/04/07 07:04:39;;;;;;;7.70;3.75;;;;;;;12.06;63.88;98796.16;5568420;32;34278;-65
2022/04/07 07:07:42;;;;;;;9.18;4.28;;;;;;;11.99;64.25;98798.88;5568359;32;34324;-64
2022/04/07 07:10:48;;;;;;;6.80;4.12;;;;;;;12.19;63.49;98807.53;5568316;32;34125;-65
2022/04/07 07:13:51;;;;;;;11.75;4.55;;;;;;;12.23;62.99;98793.78;5554493;32;34194;-65
2022/04/07 07:16:54;;;;;;;7.55;4.57;;;;;;;12.35;62.36;98800.81;5569400;32;34636;-65
2022/04/07 07:20:00;;;;;;;7.00;4.10;;;;;;;12.39;62.36;98806.53;5571291;32;34198;-65
2022/04/07 07:23:03;;;;;;;6.93;4.62;;;;;;;12.29;63.31;98807.03;5570919;32;34862;-65
2022/04/07 07:26:06;;;;;;;10.07;4.30;;;;;;;12.53;62.96;98810.72;5570670;32;34931;-65
2022/04/07 07:29:08;;;;;;;13.02;5.43;;;;;;;12.75;62.61;98809.25;5570735;32;34913;-65
2022/04/07 07:32:11;;;;;;;6.45;4.50;;;;;;;12.50;62.32;98803.97;5570811;32;34239;-65
2022/04/07 07:35:17;;;;;;;6.65;4.53;;;;;;;12.68;62.35;98805.88;5544125;32;33690;-65
2022/04/07 07:38:20;;;;;;;6.22;4.22;;;;;;;12.69;61.64;98811.97;5557035;32;32676;-65
2022/04/07 07:41:23;;;;;;;8.32;4.85;;;;;;;12.30;63.46;98805.16;5570772;32;34166;-65
2022/04/07 07:44:26;;;;;;;7.57;4.55;;;;;;;12.48;63.11;98810.56;5555696;32;33019;-65
2022/04/07 07:47:29;;;;;;;11.63;5.20;;;;;;;12.58;63.13;98808.22;5568895;32;35727;-65
2022/04/07 07:50:31;;;;;;;9.35;4.82;;;;;;;12.51;63.56;98818.91;5570982;32;34150;-65
2022/04/07 07:53:34;;;;;;;8.77;5.28;;;;;;;12.32;64.21;98816.41;5570215;32;34852;-65
2022/04/07 07:56:37;;;;;;;8.77;5.07;;;;;;;12.00;65.54;98818.28;5570402;32;34290;-64
2022/04/07 07:59:42;;;;;;;10.80;5.18;;;;;;;12.09;64.36;98817.00;5570460;32;34660;-64
2022/04/07 08:02:45;;;;;;;8.40;4.78;;;;;;;12.10;64.28;98814.09;5556893;32;34821;-64
2022/04/07 08:05:48;;;;;;;9.40;4.10;;;;;;;11.96;65.46;98815.22;5570510;32;34161;-65
2022/04/07 08:08:51;;;;;;;6.87;4.35;;;;;;;12.04;65.21;98819.50;5570938;32;34989;-65
2022/04/07 08:11:56;;;;;;;9.27;4.75;;;;;;;12.66;64.38;98820.41;5556432;32;33286;-64
2022/04/07 08:14:59;;;;;;;11.77;5.03;;;;;;;12.52;64.72;98817.88;5570481;32;34690;-65
2022/04/07 08:18:02;;;;;;;6.87;4.00;;;;;;;13.03;62.28;98830.88;5570310;32;34291;-65
2022/04/07 08:21:05;;;;;;;6.55;4.05;;;;;;;13.40;58.89;98820.25;5570597;32;35418;-65
2022/04/07 08:24:08;;;;;;;7.50;4.03;;;;;;;13.28;60.17;98822.03;5556133;32;32926;-65
2022/04/07 08:27:12;;;;;;;7.47;4.72;;;;;;;13.54;58.66;98831.56;5569936;32;34561;-65
2022/04/07 08:30:15;;;;;;;7.32;4.45;;;;;;;13.37;59.71;98828.69;5570137;32;34904;-65
2022/04/07 08:33:18;;;;;;;8.40;4.12;;;;;;;13.84;58.93;98833.22;5570105;32;34232;-65
2022/04/07 08:36:21;;;;;;;7.70;4.60;;;;;;;13.93;57.87;98842.53;5570200;32;35505;-65
2022/04/07 08:39:24;;;;;;;5.97;3.35;;;;;;;14.05;56.86;98836.38;5570451;32;34317;-66
2022/04/07 08:42:27;;;;;;;7.95;3.67;;;;;;;14.13;56.63;98839.56;5569760;32;34382;-65
2022/04/07 08:45:30;;;;;;;7.53;4.20;;;;;;;13.39;59.10;98830.09;5569911;32;34327;-65
2022/04/07 08:48:40;;;;;;;5.87;3.75;;;;;;;13.85;57.78;98836.66;5556481;31;35678;-64
2022/04/07 08:51:44;;;;;;;6.82;3.85;;;;;;;13.61;58.49;98840.28;5570040;32;34924;-64
2022/04/07 08:54:47;;;;;;;8.82;4.20;;;;;;;13.28;60.25;98838.00;5556134;32;33427;-64
2022/04/07 08:57:50;;;;;;;6.53;4.20;;;;;;;13.19;60.31;98832.19;5569783;32;34237;-65
2022/04/07 09:00:53;;;;;;;7.15;4.03;;;;;;;13.41;60.02;98825.34;5556217;32;33526;-64
2022/04/07 09:03:55;;;;;;;5.10;3.70;;;;;;;13.74;58.89;98813.47;5543428;32;32740;-65
2022/04/07 09:06:58;;;;;;;5.30;3.87;;;;;;;14.56;56.36;98807.31;5569889;32;34835;-65
2022/04/07 09:10:02;;;;;;;8.45;4.10;;;;;;;14.51;56.69;98807.19;5569728;32;35086;-65
2022/04/07 09:13:05;;;;;;;7.80;4.20;;;;;;;14.02;57.22;98803.00;5569395;32;34826;-65
2022/04/07 09:16:12;;;;;;;7.10;3.65;;;;;;;13.95;58.17;98807.62;5569526;32;34633;-65
2022/04/07 09:19:23;;;;;;;9.27;4.10;;;;;;;14.63;55.65;98809.84;5569634;32;35489;-65
2022/04/07 09:22:30;;;;;;;6.05;3.80;;;;;;;14.22;56.62;98800.84;5569540;32;34875;-66
2022/04/07 09:25:33;;;;;;;5.90;3.78;;;;;;;14.33;56.76;98792.03;5555865;32;33580;-63
2022/04/07 09:28:36;;;;;;;7.00;3.60;;;;;;;14.21;57.22;98793.88;5555547;32;33249;-65
2022/04/07 09:31:40;;;;;;;6.65;4.10;;;;;;;14.18;58.11;98781.03;5549100;32;34326;-65
2022/04/07 09:34:43;;;;;;;6.40;3.62;;;;;;;13.84;58.04;98795.91;5549913;32;34279;-65
2022/04/07 09:37:46;;;;;;;6.68;3.85;;;;;;;14.40;56.74;98791.97;5548818;32;32791;-66
2022/04/07 09:40:49;;;;;;;7.05;3.75;;;;;;;14.10;57.44;98797.34;5549463;32;34161;-65
2022/04/07 09:44:01;;;;;;;7.10;4.20;;;;;;;14.33;56.11;98789.37;5549005;32;33823;-64
2022/04/07 09:47:10;;;;;;;5.53;3.50;;;;;;;13.94;57.46;98785.47;5551084;32;34346;-63
2022/04/07 09:50:23;;;;;;;6.82;3.95;;;;;;;14.18;57.00;98789.03;5552910;32;34291;-65
2022/04/07 09:53:35;;;;;;;6.32;3.67;;;;;;;14.08;57.26;98791.44;5553629;32;33803;-64
2022/04/07 09:56:40;;;;;;;5.37;3.10;;;;;;;13.72;56.69;98787.03;5550037;32;35468;-65
2022/04/07 09:59:42;;;;;;;5.80;3.00;;;;;;;14.03;57.53;98791.31;5549950;32;34931;-65
2022/04/07 10:02:45;;;;;;;6.20;3.00;;;;;;;14.40;54.64;98789.28;5549922;32;34362;-66
2022/04/07 10:05:50;;;;;;;6.90;3.08;;;;;;;14.42;53.97;98789.06;5550046;32;34241;-66
2022/04/07 10:08:52;;;;;;;7.50;3.35;;;;;;;14.35;54.78;98779.28;5548977;32;32627;-66
2022/04/07 10:11:58;;;;;;;7.47;3.67;;;;;;;14.60;54.58;98776.44;5549509;32;34287;-65
2022/04/07 10:15:03;;;;;;;7.12;4.22;;;;;;;14.83;53.92;98778.25;5549512;32;34441;-65
2022/04/07 10:18:14;;;;;;;5.53;3.37;;;;;;;14.56;54.72;98783.28;5535591;32;34359;-65
2022/04/07 10:21:45;;;;;;;7.53;4.00;;;;;;;15.08;52.25;98781.47;5549263;32;34150;-66
2022/04/07 10:24:55;;;;;;;6.55;3.65;;;;;;;15.18;52.23;98776.34;5545789;32;34177;-65
2022/04/07 10:28:07;;;;;;;7.25;3.72;;;;;;;15.25;52.07;98776.19;5549770;32;34640;-65
2022/04/07 10:31:14;;;;;;;7.43;3.65;;;;;;;15.03;52.91;98772.53;5562776;32;34946;-65
2022/04/07 10:34:30;;;;;;;9.85;4.10;;;;;;;15.54;52.28;98764.50;5568835;32;34379;-66
2022/04/07 10:37:42;;;;;;;6.05;3.60;;;;;;;15.80;52.29;98757.78;5555113;32;33554;-65
2022/04/07 10:40:51;;;;;;;7.80;4.30;;;;;;;16.18;50.65;98756.25;5569063;32;34857;-65
2022/04/07 10:44:08;;;;;;;6.07;3.83;;;;;;;16.83;48.52;98759.13;5568589;32;34533;-66
2022/04/07 10:47:11;;;;;;;8.70;4.20;;;;;;;16.50;48.96;98758.13;5568758;32;34692;-66
2022/04/07 10:50:18;;;;;;;8.07;4.40;;;;;;;17.46;46.80;98752.41;5555589;32;32841;-66
2022/04/07 10:53:22;;;;;;;6.28;4.22;;;;;;;17.52;46.31;98746.84;5570810;32;34551;-66
2022/04/07 10:56:34;;;;;;;8.02;4.18;;;;;;;17.90;45.42;98739.75;5570845;32;34307;-65
2022/04/07 10:59:40;;;;;;;7.37;3.47;;;;;;;18.34;43.28;98735.00;5570833;32;34859;-66
2022/04/07 11:02:43;;;;;;;6.65;3.87;;;;;;;17.99;44.38;98730.16;5570462;32;34231;-66
2022/04/07 11:06:21;;;;;;;5.60;3.60;;;;;;;17.80;44.83;98711.75;5570421;32;34250;-66
2022/04/07 11:09:24;;;;;;;6.82;3.67;;;;;;;20.84;38.00;98726.16;5570945;32;34900;-66
2022/04/07 11:12:39;;;;;;;7.97;4.03;;;;;;;20.26;38.67;98722.19;5557236;32;32675;-66
2022/04/07 11:15:51;;;;;;;6.72;3.47;;;;;;;21.05;36.80;98721.50;5570668;32;34328;-65
2022/04/07 11:19:13;;;;;;;5.43;3.25;;;;;;;21.60;35.03;98729.34;5570874;32;34779;-66
2022/04/07 11:22:19;;;;;;;5.32;3.70;;;;;;;19.07;40.04;98717.97;5570819;32;34939;-66
2022/04/07 11:25:35;;;;;;;7.70;3.65;;;;;;;18.64;41.20;98703.78;5570910;32;34870;-66
2022/04/07 11:28:38;;;;;;;5.37;3.80;;;;;;;19.72;38.98;98711.16;5570149;32;34518;-66
2022/04/07 11:31:48;;;;;;;7.90;4.07;;;;;;;19.61;39.57;98714.91;5570836;31;34918;-66
2022/04/07 11:34:52;;;;;;;5.97;3.60;;;;;;;19.11;41.01;98713.69;5556984;32;34211;-65
2022/04/07 11:37:56;;;;;;;7.70;4.30;;;;;;;18.62;42.23;98708.62;5570664;32;35024;-65
2022/04/07 11:41:00;;;;;;;7.45;3.95;;;;;;;18.03;43.27;98694.50;5556975;32;32863;-66
2022/04/07 11:44:07;;;;;;;6.40;3.62;;;;;;;19.91;39.74;98704.16;5570527;32;34396;-66
2022/04/07 11:47:25;;;;;;;5.85;3.62;;;;;;;21.11;36.91;98699.63;5570491;32;34624;-66
2022/04/07 11:50:28;;;;;;;5.00;3.60;;;;;;;20.01;38.21;98688.03;5570430;32;34327;-66
2022/04/07 11:53:31;;;;;;;4.68;3.47;;;;;;;20.88;37.22;98684.09;5570947;32;34477;-67
2022/04/07 11:56:38;;;;;;;5.75;3.08;;;;;;;21.85;35.13;98689.75;5570974;32;35083;-67
2022/04/07 11:59:43;;;;;;;5.20;3.50;;;;;;;23.51;31.56;98680.97;5570491;32;35746;-67
2022/04/07 12:03:00;;;;;;;5.57;3.60;;;;;;;22.27;34.21;98670.25;5556152;32;34336;-66
2022/04/07 12:06:04;;;;;;;5.95;3.12;;;;;;;22.20;34.85;98667.87;5570349;32;34896;-69
2022/04/07 12:09:08;;;;;;;7.25;3.40;;;;;;;23.26;31.90;98673.97;5555603;32;34019;-67
2022/04/07 12:12:12;;;;;;;5.22;3.08;;;;;;;22.32;33.32;98668.28;5569885;32;34905;-66
2022/04/07 12:15:16;;;;;;;6.60;2.90;;;;;;;23.87;31.83;98668.47;5543568;32;33453;-67
2022/04/07 12:18:27;;;;;;;4.22;2.97;;;;;;;23.09;31.66;98662.84;5556366;32;32701;-65
2022/04/07 12:21:49;;;;;;;6.28;3.20;;;;;;;22.36;32.87;98655.84;5570332;32;34696;-70
2022/04/07 12:25:00;;;;;;;4.30;2.72;;;;;;;22.49;32.89;98652.44;5570229;32;34289;-66
2022/04/07 12:28:21;;;;;;;5.32;2.78;;;;;;;21.80;33.88;98652.00;5569969;32;34758;-66
2022/04/07 12:31:24;;;;;;;4.53;2.80;;;;;;;22.20;33.43;98640.88;5569905;32;34625;-66
2022/04/07 12:34:26;;;;;;;3.45;2.47;;;;;;;23.78;30.61;98643.16;5570445;32;34127;-65
2022/04/07 12:37:33;;;;;;;4.25;2.22;;;;;;;23.58;30.55;98638.88;5556179;32;32714;-66
2022/04/07 12:40:38;;;;;;;8.60;2.72;;;;;;;21.32;33.22;98637.50;5556086;32;32800;-66
2022/04/07 12:43:52;;;;;;;3.70;2.47;;;;;;;21.25;34.49;98630.53;5556440;32;32927;-66
2022/04/07 12:46:57;;;;;;;8.68;2.67;;;;;;;22.77;32.20;98626.47;5543670;32;33568;-66
2022/04/07 12:50:02;;;;;;;3.78;2.37;;;;;;;23.65;30.33;98633.91;5569770;32;34302;-68
2022/04/07 12:53:34;;;;;;;5.70;2.92;;;;;;;25.23;27.43;98637.16;5570016;32;34897;-67
2022/04/07 12:56:38;;;;;;;4.45;2.85;;;;;;;25.19;27.45;98634.25;5569819;32;34640;-67
2022/04/07 12:59:53;;;;;;;4.80;2.80;;;;;;;28.06;24.34;98623.78;5555950;32;33089;-67
2022/04/07 13:02:59;;;;;;;5.65;2.67;;;;;;;27.40;24.53;98615.03;5569676;32;34165;-67
2022/04/07 13:06:03;;;;;;;5.25;3.17;;;;;;;28.50;23.04;98614.37;5569534;32;34254;-68
2022/04/07 13:09:07;;;;;;;4.18;3.08;;;;;;;28.78;23.43;98612.00;5569449;32;34840;-66
2022/04/07 13:12:10;;;;;;;5.40;3.60;;;;;;;25.75;26.93;98605.81;5569635;32;34383;-66
2022/04/07 13:15:13;;;;;;;5.62;2.90;;;;;;;29.47;23.24;98608.81;5569413;32;34105;-67
2022/04/07 13:18:16;;;;;;;6.07;3.40;;;;;;;31.09;20.06;98597.09;5555504;32;32712;-67
2022/04/07 13:21:19;;;;;;;3.60;2.90;;;;;;;31.56;20.17;98600.06;5555280;32;32658;-67
2022/04/07 13:24:22;;;;;;;6.90;3.00;;;;;;;29.48;22.30;98603.00;5555706;32;35464;-67
2022/04/07 13:27:25;;;;;;;5.97;2.90;;;;;;;31.21;20.62;98602.56;5555317;32;34163;-67
2022/04/07 13:30:28;;;;;;;5.68;2.62;;;;;;;31.34;20.93;98597.81;5569052;32;34253;-67
2022/04/07 13:33:30;;;;;;;3.97;2.87;;;;;;;31.40;19.61;98599.97;5555153;32;32728;-67
2022/04/07 13:36:34;;;;;;;9.60;3.05;;;;;;;30.45;20.99;98591.53;5569108;32;34154;-67
2022/04/07 13:39:36;;;;;;;3.97;2.60;;;;;;;31.55;20.00;98586.69;5554645;32;34797;-68
2022/04/07 13:42:59;;;;;;;7.10;3.00;;;;;;;28.45;23.36;98579.09;5557427;32;34294;-67
2022/04/07 13:46:02;;;;;;;4.47;2.83;;;;;;;27.29;24.03;98567.47;5542307;32;32990;-67
2022/04/07 13:49:05;;;;;;;3.67;2.70;;;;;;;30.58;20.49;98566.59;5555389;32;34354;-68
2022/04/07 13:52:08;;;;;;;5.37;2.30;;;;;;;29.74;21.95;98556.28;5569410;32;34318;-68
2022/04/07 13:55:11;;;;;;;4.18;2.60;;;;;;;27.96;23.53;98550.53;5541779;32;34143;-66
2022/04/07 13:58:14;;;;;;;5.40;2.60;;;;;;;25.31;27.15;98544.16;5568437;32;34957;-66
2022/04/07 14:01:20;;;;;;;5.12;2.87;;;;;;;26.64;25.68;98548.50;5554483;32;35477;-66
2022/04/07 14:04:23;;;;;;;7.10;2.80;;;;;;;28.03;23.83;98556.31;5568773;32;34529;-67
2022/04/07 14:07:26;;;;;;;5.22;2.03;;;;;;;31.75;19.99;98545.37;5568578;32;34299;-67
2022/04/07 14:10:29;;;;;;;5.45;2.60;;;;;;;32.66;18.69;98548.84;5554730;32;34482;-66
2022/04/07 14:13:31;;;;;;;3.30;2.20;;;;;;;30.59;20.98;98535.34;5568714;32;35466;-67
2022/04/07 14:16:34;;;;;;;9.23;2.55;;;;;;;29.27;22.19;98529.25;5568143;32;34312;-66
2022/04/07 14:19:37;;;;;;;4.82;2.42;;;;;;;28.87;23.27;98512.53;5554372;32;33720;-66
2022/04/07 14:22:41;;;;;;;4.10;2.47;;;;;;;28.10;23.87;98505.59;5554469;32;32643;-66
2022/04/07 14:25:43;;;;;;;2.80;2.15;;;;;;;24.78;28.55;98497.91;5567123;32;34225;-66
2022/04/07 14:28:46;;;;;;;6.60;2.22;;;;;;;22.46;32.48;98500.91;5554355;32;32902;-67
2022/04/07 14:31:49;;;;;;;3.28;2.45;;;;;;;22.14;32.71;98487.25;5541382;32;32771;-66